sensor_id;sensor_type;location;lat;lon;timestamp;temperature;humidity
7998;DHT22;4044;49.814;7.828;2023-12-20T00:02:08;5.80;99.90
7998;DHT22;4044;49.814;7.828;2023-12-20T00:04:34;5.70;99.90
7998;DHT22;4044;49.814;7.828;2023-12-20T00:07:00;5.80;99.90
7998;DHT22;4044;49.814;7.828;2023-12-20T00:09:25;5.80;99.90
7998;DHT22;4044;49.814;7.828;2023-12-20T00:11:51;5.80;99.90
7998;DHT22;4044;49.814;7.828;2023-12-20T00:14:16;5.80;99.90
7998;DHT22;4044;49.814;7.828;2023-12-20T00:16:42;5.70;99.90
7998;DHT22;4044;49.814;7.828;2023-12-20T00:19:07;5.70;99.90
7998;DHT22;4044;49.814;7.828;2023-12-20T00:21:33;5.80;99.90
7998;DHT22;4044;49.814;7.828;2023-12-20T00:23:58;5.70;99.90
7998;DHT22;4044;49.814;7.828;2023-12-20T00:26:24;5.70;99.90
7998;DHT22;4044;49.814;7.828;2023-12-20T00:28:49;5.80;99.90
7998;DHT22;4044;49.814;7.828;2023-12-20T00:31:15;5.80;99.90
7998;DHT22;4044;49.814;7.828;2023-12-20T00:33:40;5.80;99.90
7998;DHT22;4044;49.814;7.828;2023-12-20T00:36:09;5.80;99.90
7998;DHT22;4044;49.814;7.828;2023-12-20T00:38:35;5.90;99.90
7998;DHT22;4044;49.814;7.828;2023-12-20T00:41:00;6.00;99.90
7998;DHT22;4044;49.814;7.828;2023-12-20T00:43:26;6.10;99.90
7998;DHT22;4044;49.814;7.828;2023-12-20T00:45:52;6.10;99.90
7998;DHT22;4044;49.814;7.828;2023-12-20T00:48:17;6.20;99.90
7998;DHT22;4044;49.814;7.828;2023-12-20T00:50:43;6.20;99.90
7998;DHT22;4044;49.814;7.828;2023-12-20T00:53:08;6.20;99.90
7998;DHT22;4044;49.814;7.828;2023-12-20T00:55:34;6.30;99.90
7998;DHT22;4044;49.814;7.828;2023-12-20T00:57:59;6.20;99.90
7998;DHT22;4044;49.814;7.828;2023-12-20T01:00:25;6.30;99.90
7998;DHT22;4044;49.814;7.828;2023-12-20T01:02:51;6.10;99.90
7998;DHT22;4044;49.814;7.828;2023-12-20T01:05:17;6.00;99.90
7998;DHT22;4044;49.814;7.828;2023-12-20T01:07:43;6.00;99.90
7998;DHT22;4044;49.814;7.828;2023-12-20T01:10:09;6.10;99.90
7998;DHT22;4044;49.814;7.828;2023-12-20T01:12:36;6.00;99.90
7998;DHT22;4044;49.814;7.828;2023-12-20T01:15:02;6.20;99.90
7998;DHT22;4044;49.814;7.828;2023-12-20T01:17:27;6.20;99.90
7998;DHT22;4044;49.814;7.828;2023-12-20T01:19:53;6.00;99.90
7998;DHT22;4044;49.814;7.828;2023-12-20T01:22:18;6.00;99.90
7998;DHT22;4044;49.814;7.828;2023-12-20T01:24:44;6.10;99.90
7998;DHT22;4044;49.814;7.828;2023-12-20T01:27:10;6.20;99.90
7998;DHT22;4044;49.814;7.828;2023-12-20T01:29:35;6.20;99.90
7998;DHT22;4044;49.814;7.828;2023-12-20T01:32:01;6.00;99.90
7998;DHT22;4044;49.814;7.828;2023-12-20T01:34:26;5.90;99.90
7998;DHT22;4044;49.814;7.828;2023-12-20T01:36:52;5.90;99.90
7998;DHT22;4044;49.814;7.828;2023-12-20T01:39:17;6.00;99.90
7998;DHT22;4044;49.814;7.828;2023-12-20T01:41:43;6.10;99.90
7998;DHT22;4044;49.814;7.828;2023-12-20T01:44:09;6.00;99.90
7998;DHT22;4044;49.814;7.828;2023-12-20T01:46:34;6.00;99.90
7998;DHT22;4044;49.814;7.828;2023-12-20T01:49:00;6.00;99.90
7998;DHT22;4044;49.814;7.828;2023-12-20T01:51:26;6.10;99.90
7998;DHT22;4044;49.814;7.828;2023-12-20T01:53:53;6.00;99.90
7998;DHT22;4044;49.814;7.828;2023-12-20T01:56:20;6.20;99.90
7998;DHT22;4044;49.814;7.828;2023-12-20T01:58:46;6.20;99.90
7998;DHT22;4044;49.814;7.828;2023-12-20T02:01:13;6.30;99.90
7998;DHT22;4044;49.814;7.828;2023-12-20T02:03:42;6.40;99.90
7998;DHT22;4044;49.814;7.828;2023-12-20T02:06:09;6.40;99.90
7998;DHT22;4044;49.814;7.828;2023-12-20T02:08:35;6.50;99.90
7998;DHT22;4044;49.814;7.828;2023-12-20T02:11:01;6.60;99.90
7998;DHT22;4044;49.814;7.828;2023-12-20T02:13:27;6.70;99.90
7998;DHT22;4044;49.814;7.828;2023-12-20T02:15:53;6.70;99.90
7998;DHT22;4044;49.814;7.828;2023-12-20T02:18:19;6.70;99.90
7998;DHT22;4044;49.814;7.828;2023-12-20T02:20:44;6.80;99.90
7998;DHT22;4044;49.814;7.828;2023-12-20T02:23:10;6.70;99.90
7998;DHT22;4044;49.814;7.828;2023-12-20T02:25:35;6.70;99.90
7998;DHT22;4044;49.814;7.828;2023-12-20T02:28:02;6.70;99.90
7998;DHT22;4044;49.814;7.828;2023-12-20T02:30:27;6.80;99.90
7998;DHT22;4044;49.814;7.828;2023-12-20T02:32:53;6.80;99.90
7998;DHT22;4044;49.814;7.828;2023-12-20T02:35:19;6.80;99.90
7998;DHT22;4044;49.814;7.828;2023-12-20T02:37:44;6.80;99.90
7998;DHT22;4044;49.814;7.828;2023-12-20T02:40:10;6.90;99.90
7998;DHT22;4044;49.814;7.828;2023-12-20T02:42:36;6.90;99.90
7998;DHT22;4044;49.814;7.828;2023-12-20T02:45:01;6.90;99.90
7998;DHT22;4044;49.814;7.828;2023-12-20T02:47:27;6.90;99.90
7998;DHT22;4044;49.814;7.828;2023-12-20T02:49:52;6.90;99.90
7998;DHT22;4044;49.814;7.828;2023-12-20T02:52:18;6.80;99.90
7998;DHT22;4044;49.814;7.828;2023-12-20T02:54:44;6.90;99.90
7998;DHT22;4044;49.814;7.828;2023-12-20T02:57:09;6.80;99.90
7998;DHT22;4044;49.814;7.828;2023-12-20T02:59:35;6.80;99.90
7998;DHT22;4044;49.814;7.828;2023-12-20T03:02:00;6.80;99.90
7998;DHT22;4044;49.814;7.828;2023-12-20T03:04:26;6.70;99.90
7998;DHT22;4044;49.814;7.828;2023-12-20T03:06:51;6.70;99.90
7998;DHT22;4044;49.814;7.828;2023-12-20T03:09:17;6.70;99.90
7998;DHT22;4044;49.814;7.828;2023-12-20T03:11:42;6.70;99.90
7998;DHT22;4044;49.814;7.828;2023-12-20T03:14:08;6.60;99.90
7998;DHT22;4044;49.814;7.828;2023-12-20T03:16:33;6.70;99.90
7998;DHT22;4044;49.814;7.828;2023-12-20T03:18:59;6.60;99.90
7998;DHT22;4044;49.814;7.828;2023-12-20T03:21:24;6.60;99.90
7998;DHT22;4044;49.814;7.828;2023-12-20T03:23:50;6.60;99.90
7998;DHT22;4044;49.814;7.828;2023-12-20T03:26:16;6.60;99.90
7998;DHT22;4044;49.814;7.828;2023-12-20T03:28:41;6.60;99.90
7998;DHT22;4044;49.814;7.828;2023-12-20T03:31:07;6.60;99.90
7998;DHT22;4044;49.814;7.828;2023-12-20T03:33:32;6.70;99.90
7998;DHT22;4044;49.814;7.828;2023-12-20T03:35:58;6.60;99.90
7998;DHT22;4044;49.814;7.828;2023-12-20T03:38:23;6.50;99.90
7998;DHT22;4044;49.814;7.828;2023-12-20T03:40:50;6.50;99.90
7998;DHT22;4044;49.814;7.828;2023-12-20T03:43:15;6.60;99.90
7998;DHT22;4044;49.814;7.828;2023-12-20T03:45:42;6.70;99.90
7998;DHT22;4044;49.814;7.828;2023-12-20T03:48:07;6.70;99.90
7998;DHT22;4044;49.814;7.828;2023-12-20T03:50:34;6.80;99.90
7998;DHT22;4044;49.814;7.828;2023-12-20T03:53:00;6.80;99.90
7998;DHT22;4044;49.814;7.828;2023-12-20T03:55:25;6.80;99.90
7998;DHT22;4044;49.814;7.828;2023-12-20T03:57:51;6.80;99.90
7998;DHT22;4044;49.814;7.828;2023-12-20T04:00:16;6.90;99.90
7998;DHT22;4044;49.814;7.828;2023-12-20T04:02:42;6.80;99.90
7998;DHT22;4044;49.814;7.828;2023-12-20T04:05:09;6.70;99.90
7998;DHT22;4044;49.814;7.828;2023-12-20T04:07:35;6.80;99.90
7998;DHT22;4044;49.814;7.828;2023-12-20T04:10:01;6.70;99.90
7998;DHT22;4044;49.814;7.828;2023-12-20T04:12:28;6.80;99.90
7998;DHT22;4044;49.814;7.828;2023-12-20T04:14:53;6.80;99.90
7998;DHT22;4044;49.814;7.828;2023-12-20T04:17:20;6.80;99.90
7998;DHT22;4044;49.814;7.828;2023-12-20T04:19:45;6.80;99.90
7998;DHT22;4044;49.814;7.828;2023-12-20T04:22:11;6.80;99.90
7998;DHT22;4044;49.814;7.828;2023-12-20T04:24:36;6.90;99.90
7998;DHT22;4044;49.814;7.828;2023-12-20T04:27:02;6.80;99.90
7998;DHT22;4044;49.814;7.828;2023-12-20T04:29:28;6.80;99.90
7998;DHT22;4044;49.814;7.828;2023-12-20T04:31:53;6.90;99.90
7998;DHT22;4044;49.814;7.828;2023-12-20T04:34:19;6.80;99.90
7998;DHT22;4044;49.814;7.828;2023-12-20T04:36:45;6.80;99.90
7998;DHT22;4044;49.814;7.828;2023-12-20T04:39:12;6.70;99.90
7998;DHT22;4044;49.814;7.828;2023-12-20T04:41:38;6.60;99.90
7998;DHT22;4044;49.814;7.828;2023-12-20T04:44:03;6.50;99.90
7998;DHT22;4044;49.814;7.828;2023-12-20T04:46:29;6.30;99.90
7998;DHT22;4044;49.814;7.828;2023-12-20T04:48:54;6.30;99.90
7998;DHT22;4044;49.814;7.828;2023-12-20T04:51:20;6.30;99.90
7998;DHT22;4044;49.814;7.828;2023-12-20T04:53:46;6.20;99.90
7998;DHT22;4044;49.814;7.828;2023-12-20T04:56:11;6.20;99.90
7998;DHT22;4044;49.814;7.828;2023-12-20T04:58:37;6.10;99.90
7998;DHT22;4044;49.814;7.828;2023-12-20T05:01:04;6.00;99.90
7998;DHT22;4044;49.814;7.828;2023-12-20T05:03:30;5.90;99.90
7998;DHT22;4044;49.814;7.828;2023-12-20T05:05:56;5.80;99.90
7998;DHT22;4044;49.814;7.828;2023-12-20T05:08:21;5.70;99.90
7998;DHT22;4044;49.814;7.828;2023-12-20T05:10:47;5.60;99.90
7998;DHT22;4044;49.814;7.828;2023-12-20T05:13:12;5.50;99.90
7998;DHT22;4044;49.814;7.828;2023-12-20T05:15:38;5.40;99.90
7998;DHT22;4044;49.814;7.828;2023-12-20T05:18:03;5.40;99.90
7998;DHT22;4044;49.814;7.828;2023-12-20T05:20:29;5.40;99.90
7998;DHT22;4044;49.814;7.828;2023-12-20T05:22:54;5.30;99.90
7998;DHT22;4044;49.814;7.828;2023-12-20T05:25:20;5.10;99.90
7998;DHT22;4044;49.814;7.828;2023-12-20T05:27:45;5.10;99.90
7998;DHT22;4044;49.814;7.828;2023-12-20T05:30:11;5.00;99.90
7998;DHT22;4044;49.814;7.828;2023-12-20T05:32:37;5.00;99.90
7998;DHT22;4044;49.814;7.828;2023-12-20T05:35:02;5.00;99.90
7998;DHT22;4044;49.814;7.828;2023-12-20T05:37:28;4.80;99.90
7998;DHT22;4044;49.814;7.828;2023-12-20T05:39:54;4.70;99.90
7998;DHT22;4044;49.814;7.828;2023-12-20T05:42:19;4.70;99.90
7998;DHT22;4044;49.814;7.828;2023-12-20T05:44:45;4.60;99.90
7998;DHT22;4044;49.814;7.828;2023-12-20T05:47:10;4.60;99.90
7998;DHT22;4044;49.814;7.828;2023-12-20T05:49:36;4.60;99.90
7998;DHT22;4044;49.814;7.828;2023-12-20T05:52:01;4.70;99.90
7998;DHT22;4044;49.814;7.828;2023-12-20T05:54:27;4.70;99.90
7998;DHT22;4044;49.814;7.828;2023-12-20T05:56:52;4.60;99.90
7998;DHT22;4044;49.814;7.828;2023-12-20T05:59:18;4.60;99.90
7998;DHT22;4044;49.814;7.828;2023-12-20T06:01:43;4.60;99.90
7998;DHT22;4044;49.814;7.828;2023-12-20T06:04:09;4.60;99.90
7998;DHT22;4044;49.814;7.828;2023-12-20T06:06:39;4.60;99.90
7998;DHT22;4044;49.814;7.828;2023-12-20T06:09:05;4.60;99.90
7998;DHT22;4044;49.814;7.828;2023-12-20T06:11:30;4.60;99.90
7998;DHT22;4044;49.814;7.828;2023-12-20T06:13:56;4.50;99.90
7998;DHT22;4044;49.814;7.828;2023-12-20T06:16:21;4.40;99.90
7998;DHT22;4044;49.814;7.828;2023-12-20T06:18:47;4.30;99.90
7998;DHT22;4044;49.814;7.828;2023-12-20T06:21:12;4.30;99.90
7998;DHT22;4044;49.814;7.828;2023-12-20T06:23:38;4.30;99.90
7998;DHT22;4044;49.814;7.828;2023-12-20T06:26:04;4.30;99.90
7998;DHT22;4044;49.814;7.828;2023-12-20T06:28:30;4.30;99.90
7998;DHT22;4044;49.814;7.828;2023-12-20T06:30:55;4.30;99.90
7998;DHT22;4044;49.814;7.828;2023-12-20T06:33:22;4.30;99.90
7998;DHT22;4044;49.814;7.828;2023-12-20T06:35:48;4.30;99.90
7998;DHT22;4044;49.814;7.828;2023-12-20T06:38:14;4.20;99.90
7998;DHT22;4044;49.814;7.828;2023-12-20T06:40:40;4.20;99.90
7998;DHT22;4044;49.814;7.828;2023-12-20T06:43:05;4.20;99.90
7998;DHT22;4044;49.814;7.828;2023-12-20T06:45:32;4.30;99.90
7998;DHT22;4044;49.814;7.828;2023-12-20T06:47:57;4.30;99.90
7998;DHT22;4044;49.814;7.828;2023-12-20T06:50:23;4.30;99.90
7998;DHT22;4044;49.814;7.828;2023-12-20T06:52:49;4.20;99.90
7998;DHT22;4044;49.814;7.828;2023-12-20T06:55:14;4.20;99.90
7998;DHT22;4044;49.814;7.828;2023-12-20T06:57:40;4.20;99.90
7998;DHT22;4044;49.814;7.828;2023-12-20T07:00:06;4.20;99.90
7998;DHT22;4044;49.814;7.828;2023-12-20T07:02:32;4.20;99.90
7998;DHT22;4044;49.814;7.828;2023-12-20T07:04:57;4.20;99.90
7998;DHT22;4044;49.814;7.828;2023-12-20T07:07:23;4.20;99.90
7998;DHT22;4044;49.814;7.828;2023-12-20T07:09:49;4.10;99.90
7998;DHT22;4044;49.814;7.828;2023-12-20T07:12:15;4.20;99.90
7998;DHT22;4044;49.814;7.828;2023-12-20T07:14:40;4.20;99.90
7998;DHT22;4044;49.814;7.828;2023-12-20T07:17:06;4.20;99.90
7998;DHT22;4044;49.814;7.828;2023-12-20T07:19:37;4.20;99.90
7998;DHT22;4044;49.814;7.828;2023-12-20T07:22:04;4.20;99.90
7998;DHT22;4044;49.814;7.828;2023-12-20T07:24:29;4.30;99.90
7998;DHT22;4044;49.814;7.828;2023-12-20T07:26:54;4.30;99.90
7998;DHT22;4044;49.814;7.828;2023-12-20T07:29:20;4.40;99.90
7998;DHT22;4044;49.814;7.828;2023-12-20T07:31:46;4.40;99.90
7998;DHT22;4044;49.814;7.828;2023-12-20T07:34:11;4.50;99.90
7998;DHT22;4044;49.814;7.828;2023-12-20T07:36:37;4.50;99.90
7998;DHT22;4044;49.814;7.828;2023-12-20T07:39:02;4.60;99.90
7998;DHT22;4044;49.814;7.828;2023-12-20T07:41:28;4.60;99.90
7998;DHT22;4044;49.814;7.828;2023-12-20T07:43:54;4.60;99.90
7998;DHT22;4044;49.814;7.828;2023-12-20T07:46:21;4.60;99.90
7998;DHT22;4044;49.814;7.828;2023-12-20T07:48:48;4.60;99.90
7998;DHT22;4044;49.814;7.828;2023-12-20T07:51:13;4.60;99.90
7998;DHT22;4044;49.814;7.828;2023-12-20T07:53:39;4.60;99.90
7998;DHT22;4044;49.814;7.828;2023-12-20T07:56:17;4.60;99.90
7998;DHT22;4044;49.814;7.828;2023-12-20T07:58:43;4.60;99.90
7998;DHT22;4044;49.814;7.828;2023-12-20T08:01:10;4.70;99.90
7998;DHT22;4044;49.814;7.828;2023-12-20T08:03:35;4.70;99.90
7998;DHT22;4044;49.814;7.828;2023-12-20T08:06:02;4.70;99.90
7998;DHT22;4044;49.814;7.828;2023-12-20T08:08:27;4.80;99.90
7998;DHT22;4044;49.814;7.828;2023-12-20T08:10:53;4.80;99.90
7998;DHT22;4044;49.814;7.828;2023-12-20T08:13:19;4.90;99.90
7998;DHT22;4044;49.814;7.828;2023-12-20T08:15:44;5.10;99.90
7998;DHT22;4044;49.814;7.828;2023-12-20T08:18:10;5.30;99.90
7998;DHT22;4044;49.814;7.828;2023-12-20T08:20:35;5.20;99.90
7998;DHT22;4044;49.814;7.828;2023-12-20T08:23:01;5.20;99.90
7998;DHT22;4044;49.814;7.828;2023-12-20T08:25:26;5.20;99.90
7998;DHT22;4044;49.814;7.828;2023-12-20T08:27:52;5.30;99.90
7998;DHT22;4044;49.814;7.828;2023-12-20T08:30:18;5.50;99.90
7998;DHT22;4044;49.814;7.828;2023-12-20T08:32:50;5.50;99.90
7998;DHT22;4044;49.814;7.828;2023-12-20T08:35:15;5.50;99.90
7998;DHT22;4044;49.814;7.828;2023-12-20T08:37:41;5.50;99.90
7998;DHT22;4044;49.814;7.828;2023-12-20T08:40:06;5.60;99.90
7998;DHT22;4044;49.814;7.828;2023-12-20T08:42:32;5.70;99.90
7998;DHT22;4044;49.814;7.828;2023-12-20T08:44:58;5.70;99.90
7998;DHT22;4044;49.814;7.828;2023-12-20T08:47:24;5.80;99.90
7998;DHT22;4044;49.814;7.828;2023-12-20T08:49:50;5.90;99.90
7998;DHT22;4044;49.814;7.828;2023-12-20T08:52:15;5.90;99.90
7998;DHT22;4044;49.814;7.828;2023-12-20T08:54:41;5.70;99.90
7998;DHT22;4044;49.814;7.828;2023-12-20T08:57:06;5.70;99.90
7998;DHT22;4044;49.814;7.828;2023-12-20T08:59:32;5.80;99.90
7998;DHT22;4044;49.814;7.828;2023-12-20T09:01:58;5.90;99.90
7998;DHT22;4044;49.814;7.828;2023-12-20T09:04:23;5.90;99.90
7998;DHT22;4044;49.814;7.828;2023-12-20T09:06:49;5.90;99.90
7998;DHT22;4044;49.814;7.828;2023-12-20T09:09:15;6.00;99.90
7998;DHT22;4044;49.814;7.828;2023-12-20T09:11:41;6.00;99.90
7998;DHT22;4044;49.814;7.828;2023-12-20T09:14:07;6.00;99.90
7998;DHT22;4044;49.814;7.828;2023-12-20T09:16:33;6.00;99.90
7998;DHT22;4044;49.814;7.828;2023-12-20T09:18:58;6.10;99.90
7998;DHT22;4044;49.814;7.828;2023-12-20T09:21:24;6.10;99.90
7998;DHT22;4044;49.814;7.828;2023-12-20T09:23:50;6.20;99.90
7998;DHT22;4044;49.814;7.828;2023-12-20T09:26:15;6.30;99.90
7998;DHT22;4044;49.814;7.828;2023-12-20T09:28:41;6.40;99.90
7998;DHT22;4044;49.814;7.828;2023-12-20T09:31:06;6.40;99.90
7998;DHT22;4044;49.814;7.828;2023-12-20T09:33:33;6.50;99.90
7998;DHT22;4044;49.814;7.828;2023-12-20T09:35:58;6.60;99.90
7998;DHT22;4044;49.814;7.828;2023-12-20T09:38:24;6.60;99.90
7998;DHT22;4044;49.814;7.828;2023-12-20T09:40:50;6.70;99.90
7998;DHT22;4044;49.814;7.828;2023-12-20T09:43:19;6.80;99.90
7998;DHT22;4044;49.814;7.828;2023-12-20T09:45:48;6.90;99.90
7998;DHT22;4044;49.814;7.828;2023-12-20T09:48:14;7.00;99.90
7998;DHT22;4044;49.814;7.828;2023-12-20T09:50:43;7.10;99.90
7998;DHT22;4044;49.814;7.828;2023-12-20T09:53:14;7.10;99.90
7998;DHT22;4044;49.814;7.828;2023-12-20T09:55:41;7.10;99.90
7998;DHT22;4044;49.814;7.828;2023-12-20T09:58:07;7.20;99.90
7998;DHT22;4044;49.814;7.828;2023-12-20T10:00:34;7.30;99.90
7998;DHT22;4044;49.814;7.828;2023-12-20T10:03:00;7.30;99.90
7998;DHT22;4044;49.814;7.828;2023-12-20T10:05:31;7.30;99.90
7998;DHT22;4044;49.814;7.828;2023-12-20T10:07:57;7.30;99.90
7998;DHT22;4044;49.814;7.828;2023-12-20T10:10:23;7.30;99.90
7998;DHT22;4044;49.814;7.828;2023-12-20T10:13:09;7.40;99.90
7998;DHT22;4044;49.814;7.828;2023-12-20T10:15:35;7.30;99.90
7998;DHT22;4044;49.814;7.828;2023-12-20T10:18:02;7.40;99.90
7998;DHT22;4044;49.814;7.828;2023-12-20T10:20:28;7.40;99.90
7998;DHT22;4044;49.814;7.828;2023-12-20T10:22:55;7.50;99.90
7998;DHT22;4044;49.814;7.828;2023-12-20T10:25:21;7.60;99.90
7998;DHT22;4044;49.814;7.828;2023-12-20T10:27:47;7.70;99.90
7998;DHT22;4044;49.814;7.828;2023-12-20T10:30:15;7.70;99.90
7998;DHT22;4044;49.814;7.828;2023-12-20T10:32:41;7.70;99.90
7998;DHT22;4044;49.814;7.828;2023-12-20T10:35:08;7.70;99.90
7998;DHT22;4044;49.814;7.828;2023-12-20T10:37:37;7.70;99.90
7998;DHT22;4044;49.814;7.828;2023-12-20T10:40:04;7.70;99.90
7998;DHT22;4044;49.814;7.828;2023-12-20T10:42:31;7.70;99.90
7998;DHT22;4044;49.814;7.828;2023-12-20T10:44:59;7.70;99.90
7998;DHT22;4044;49.814;7.828;2023-12-20T10:47:25;7.80;99.90
7998;DHT22;4044;49.814;7.828;2023-12-20T10:49:52;7.70;99.90
7998;DHT22;4044;49.814;7.828;2023-12-20T10:52:18;7.70;99.90
7998;DHT22;4044;49.814;7.828;2023-12-20T10:54:44;7.70;99.90
7998;DHT22;4044;49.814;7.828;2023-12-20T10:57:10;7.70;99.90
7998;DHT22;4044;49.814;7.828;2023-12-20T10:59:37;7.60;99.90
7998;DHT22;4044;49.814;7.828;2023-12-20T11:02:04;7.70;99.90
7998;DHT22;4044;49.814;7.828;2023-12-20T11:04:42;7.70;99.90
7998;DHT22;4044;49.814;7.828;2023-12-20T11:09:41;7.90;99.90
7998;DHT22;4044;49.814;7.828;2023-12-20T11:12:38;8.00;99.90
7998;DHT22;4044;49.814;7.828;2023-12-20T11:15:07;8.10;99.90
7998;DHT22;4044;49.814;7.828;2023-12-20T11:17:33;8.10;99.90
7998;DHT22;4044;49.814;7.828;2023-12-20T11:22:26;8.10;99.90
7998;DHT22;4044;49.814;7.828;2023-12-20T11:24:52;8.10;99.90
7998;DHT22;4044;49.814;7.828;2023-12-20T11:27:19;8.10;99.90
7998;DHT22;4044;49.814;7.828;2023-12-20T11:29:52;8.00;99.90
7998;DHT22;4044;49.814;7.828;2023-12-20T11:35:01;8.00;99.90
7998;DHT22;4044;49.814;7.828;2023-12-20T11:37:35;8.00;99.90
7998;DHT22;4044;49.814;7.828;2023-12-20T11:40:05;8.00;99.90
7998;DHT22;4044;49.814;7.828;2023-12-20T11:42:37;8.00;99.90
7998;DHT22;4044;49.814;7.828;2023-12-20T11:45:03;8.10;99.90
7998;DHT22;4044;49.814;7.828;2023-12-20T11:47:30;8.00;99.90
7998;DHT22;4044;49.814;7.828;2023-12-20T11:49:56;8.00;99.90
7998;DHT22;4044;49.814;7.828;2023-12-20T11:52:22;7.90;99.90
7998;DHT22;4044;49.814;7.828;2023-12-20T11:54:47;7.90;99.90
7998;DHT22;4044;49.814;7.828;2023-12-20T11:57:13;7.90;99.90
7998;DHT22;4044;49.814;7.828;2023-12-20T11:59:39;7.90;99.90
7998;DHT22;4044;49.814;7.828;2023-12-20T12:02:05;7.90;99.90
7998;DHT22;4044;49.814;7.828;2023-12-20T12:04:30;8.00;99.90
7998;DHT22;4044;49.814;7.828;2023-12-20T12:06:56;8.00;99.90
7998;DHT22;4044;49.814;7.828;2023-12-20T12:09:21;7.90;99.90
7998;DHT22;4044;49.814;7.828;2023-12-20T12:11:47;8.00;99.90
7998;DHT22;4044;49.814;7.828;2023-12-20T12:14:13;7.90;99.90
7998;DHT22;4044;49.814;7.828;2023-12-20T12:16:38;7.70;99.90
7998;DHT22;4044;49.814;7.828;2023-12-20T12:19:04;7.70;99.90
7998;DHT22;4044;49.814;7.828;2023-12-20T12:21:29;7.50;99.90
7998;DHT22;4044;49.814;7.828;2023-12-20T12:24:06;7.60;99.90
7998;DHT22;4044;49.814;7.828;2023-12-20T12:26:32;7.60;99.90
7998;DHT22;4044;49.814;7.828;2023-12-20T12:28:57;7.60;99.90
7998;DHT22;4044;49.814;7.828;2023-12-20T12:31:23;7.50;99.90
7998;DHT22;4044;49.814;7.828;2023-12-20T12:33:50;7.70;99.90
7998;DHT22;4044;49.814;7.828;2023-12-20T12:36:16;7.90;99.90
7998;DHT22;4044;49.814;7.828;2023-12-20T12:38:43;8.10;99.90
7998;DHT22;4044;49.814;7.828;2023-12-20T12:41:08;8.10;99.90
7998;DHT22;4044;49.814;7.828;2023-12-20T12:43:35;8.10;99.90
7998;DHT22;4044;49.814;7.828;2023-12-20T12:46:01;8.30;99.90
7998;DHT22;4044;49.814;7.828;2023-12-20T12:48:26;8.30;99.90
7998;DHT22;4044;49.814;7.828;2023-12-20T12:50:53;8.40;99.90
7998;DHT22;4044;49.814;7.828;2023-12-20T12:53:19;8.50;99.90
7998;DHT22;4044;49.814;7.828;2023-12-20T12:55:45;8.60;99.90
7998;DHT22;4044;49.814;7.828;2023-12-20T12:58:11;9.00;99.90
7998;DHT22;4044;49.814;7.828;2023-12-20T13:00:37;9.40;99.90
7998;DHT22;4044;49.814;7.828;2023-12-20T13:03:02;10.00;99.90
7998;DHT22;4044;49.814;7.828;2023-12-20T13:05:28;10.40;97.70
7998;DHT22;4044;49.814;7.828;2023-12-20T13:07:55;10.30;98.00
7998;DHT22;4044;49.814;7.828;2023-12-20T13:10:21;10.50;98.50
7998;DHT22;4044;49.814;7.828;2023-12-20T13:12:46;10.50;97.80
7998;DHT22;4044;49.814;7.828;2023-12-20T13:15:12;9.90;97.80
7998;DHT22;4044;49.814;7.828;2023-12-20T13:17:37;9.60;98.80
7998;DHT22;4044;49.814;7.828;2023-12-20T13:20:03;9.40;99.50
7998;DHT22;4044;49.814;7.828;2023-12-20T13:22:29;9.60;98.80
7998;DHT22;4044;49.814;7.828;2023-12-20T13:24:54;9.60;99.20
7998;DHT22;4044;49.814;7.828;2023-12-20T13:27:20;9.60;98.10
7998;DHT22;4044;49.814;7.828;2023-12-20T13:29:45;9.90;98.30
7998;DHT22;4044;49.814;7.828;2023-12-20T13:32:11;10.10;97.80
7998;DHT22;4044;49.814;7.828;2023-12-20T13:34:36;10.30;97.50
7998;DHT22;4044;49.814;7.828;2023-12-20T13:37:02;10.30;97.20
7998;DHT22;4044;49.814;7.828;2023-12-20T13:39:28;9.90;97.60
7998;DHT22;4044;49.814;7.828;2023-12-20T13:41:53;9.70;97.80
7998;DHT22;4044;49.814;7.828;2023-12-20T13:44:19;9.60;97.90
7998;DHT22;4044;49.814;7.828;2023-12-20T13:46:44;9.50;98.60
7998;DHT22;4044;49.814;7.828;2023-12-20T13:49:11;9.30;98.70
7998;DHT22;4044;49.814;7.828;2023-12-20T13:51:37;9.10;98.30
7998;DHT22;4044;49.814;7.828;2023-12-20T13:54:03;9.10;98.50
7998;DHT22;4044;49.814;7.828;2023-12-20T13:56:29;9.20;98.60
7998;DHT22;4044;49.814;7.828;2023-12-20T13:58:55;9.30;98.00
7998;DHT22;4044;49.814;7.828;2023-12-20T14:01:20;9.30;98.20
7998;DHT22;4044;49.814;7.828;2023-12-20T14:03:46;9.20;98.40
7998;DHT22;4044;49.814;7.828;2023-12-20T14:06:11;9.00;98.90
7998;DHT22;4044;49.814;7.828;2023-12-20T14:08:37;8.90;98.80
7998;DHT22;4044;49.814;7.828;2023-12-20T14:11:03;8.60;99.50
7998;DHT22;4044;49.814;7.828;2023-12-20T14:13:28;8.30;99.20
7998;DHT22;4044;49.814;7.828;2023-12-20T14:15:54;8.30;99.60
7998;DHT22;4044;49.814;7.828;2023-12-20T14:18:20;8.30;99.70
7998;DHT22;4044;49.814;7.828;2023-12-20T14:20:46;8.20;99.90
7998;DHT22;4044;49.814;7.828;2023-12-20T14:23:12;8.20;99.90
7998;DHT22;4044;49.814;7.828;2023-12-20T14:25:41;8.10;99.90
7998;DHT22;4044;49.814;7.828;2023-12-20T14:28:07;8.10;99.90
7998;DHT22;4044;49.814;7.828;2023-12-20T14:30:32;8.10;99.90
7998;DHT22;4044;49.814;7.828;2023-12-20T14:32:58;8.10;99.90
7998;DHT22;4044;49.814;7.828;2023-12-20T14:35:23;8.20;99.90
7998;DHT22;4044;49.814;7.828;2023-12-20T14:37:49;8.20;99.90
7998;DHT22;4044;49.814;7.828;2023-12-20T14:40:15;8.20;99.90
7998;DHT22;4044;49.814;7.828;2023-12-20T14:42:44;8.10;99.90
7998;DHT22;4044;49.814;7.828;2023-12-20T14:45:10;8.00;99.90
7998;DHT22;4044;49.814;7.828;2023-12-20T14:47:36;8.10;99.90
7998;DHT22;4044;49.814;7.828;2023-12-20T14:50:05;8.10;99.90
7998;DHT22;4044;49.814;7.828;2023-12-20T14:52:32;8.10;99.90
7998;DHT22;4044;49.814;7.828;2023-12-20T14:54:57;8.00;99.90
7998;DHT22;4044;49.814;7.828;2023-12-20T14:57:23;7.80;99.90
7998;DHT22;4044;49.814;7.828;2023-12-20T14:59:48;7.80;99.90
7998;DHT22;4044;49.814;7.828;2023-12-20T15:02:14;7.90;99.90
7998;DHT22;4044;49.814;7.828;2023-12-20T15:04:40;7.80;99.90
7998;DHT22;4044;49.814;7.828;2023-12-20T15:07:06;7.80;99.90
7998;DHT22;4044;49.814;7.828;2023-12-20T15:09:32;7.80;99.90
7998;DHT22;4044;49.814;7.828;2023-12-20T15:11:57;7.70;99.90
7998;DHT22;4044;49.814;7.828;2023-12-20T15:14:23;7.70;99.90
7998;DHT22;4044;49.814;7.828;2023-12-20T15:16:48;7.80;99.90
7998;DHT22;4044;49.814;7.828;2023-12-20T15:19:14;7.70;99.90
7998;DHT22;4044;49.814;7.828;2023-12-20T15:21:40;7.70;99.90
7998;DHT22;4044;49.814;7.828;2023-12-20T15:24:13;7.70;99.90
7998;DHT22;4044;49.814;7.828;2023-12-20T15:26:44;7.70;99.90
7998;DHT22;4044;49.814;7.828;2023-12-20T15:29:11;7.60;99.90
7998;DHT22;4044;49.814;7.828;2023-12-20T15:31:42;7.60;99.90
7998;DHT22;4044;49.814;7.828;2023-12-20T15:34:08;7.60;99.90
7998;DHT22;4044;49.814;7.828;2023-12-20T15:36:33;7.60;99.90
7998;DHT22;4044;49.814;7.828;2023-12-20T15:38:59;7.60;99.90
7998;DHT22;4044;49.814;7.828;2023-12-20T15:41:24;7.70;99.90
7998;DHT22;4044;49.814;7.828;2023-12-20T15:43:50;7.70;99.90
7998;DHT22;4044;49.814;7.828;2023-12-20T15:46:16;7.70;99.90
7998;DHT22;4044;49.814;7.828;2023-12-20T15:48:41;7.80;99.90
7998;DHT22;4044;49.814;7.828;2023-12-20T15:51:08;7.60;99.90
7998;DHT22;4044;49.814;7.828;2023-12-20T15:53:34;7.70;99.90
7998;DHT22;4044;49.814;7.828;2023-12-20T15:56:00;7.70;99.90
7998;DHT22;4044;49.814;7.828;2023-12-20T15:58:25;7.70;99.90
7998;DHT22;4044;49.814;7.828;2023-12-20T16:00:52;7.70;99.90
7998;DHT22;4044;49.814;7.828;2023-12-20T16:03:17;7.70;99.90
7998;DHT22;4044;49.814;7.828;2023-12-20T16:05:43;7.70;99.90
7998;DHT22;4044;49.814;7.828;2023-12-20T16:08:08;7.70;99.90
7998;DHT22;4044;49.814;7.828;2023-12-20T16:10:34;7.70;99.90
7998;DHT22;4044;49.814;7.828;2023-12-20T16:12:59;7.70;99.90
7998;DHT22;4044;49.814;7.828;2023-12-20T16:15:25;7.60;99.90
7998;DHT22;4044;49.814;7.828;2023-12-20T16:17:50;7.60;99.90